createdAt,value
2019-01-13T00:00:32.015Z,39.03
2019-01-13T00:03:00.438Z,29.23
2019-01-13T00:05:28.852Z,17.70
2019-01-13T00:07:57.267Z,19.20
2019-01-13T00:10:26.749Z,39.20
2019-01-13T00:12:55.156Z,28.33
2019-01-13T00:15:24.742Z,32.17
2019-01-13T00:17:53.144Z,23.50
2019-01-13T00:20:21.542Z,32.03
2019-01-13T00:22:49.964Z,27.47
2019-01-13T00:25:18.397Z,16.37
2019-01-13T00:27:46.772Z,27.67
2019-01-13T00:30:19.788Z,27.27
2019-01-13T00:32:49.295Z,14.90
2019-01-13T00:35:17.740Z,23.37
2019-01-13T00:37:46.226Z,31.73
2019-01-13T00:40:17.642Z,22.87
2019-01-13T00:42:47.591Z,18.20
2019-01-13T00:45:16.510Z,45.27
2019-01-13T00:47:45.114Z,30.70
2019-01-13T00:50:14.743Z,21.03
2019-01-13T00:52:43.386Z,19.37
2019-01-13T00:55:13.632Z,33.07
2019-01-13T00:57:47.432Z,24.53
2019-01-13T01:00:26.175Z,37.97
2019-01-13T01:02:49.516Z,30.27
2019-01-13T01:05:18.212Z,31.33
2019-01-13T01:08:06.131Z,34.43
2019-01-13T01:10:34.712Z,38.93
2019-01-13T01:13:03.177Z,18.60
2019-01-13T01:15:31.579Z,11.37
2019-01-13T01:17:59.977Z,36.27
2019-01-13T01:20:28.389Z,30.03
2019-01-13T01:22:56.793Z,18.53
2019-01-13T01:25:25.196Z,26.77
2019-01-13T01:27:53.600Z,28.50
2019-01-13T01:30:22.015Z,22.53
2019-01-13T01:32:50.429Z,13.67
2019-01-13T01:35:18.836Z,11.53
2019-01-13T01:37:47.412Z,24.77
2019-01-13T01:40:20.652Z,25.53
2019-01-13T01:42:49.329Z,15.67
2019-01-13T01:45:19.350Z,21.73
2019-01-13T01:47:48.287Z,23.67
2019-01-13T01:50:17.245Z,32.47
2019-01-13T01:52:45.710Z,17.23
2019-01-13T01:55:16.452Z,10.63
2019-01-13T01:57:45.206Z,22.20
2019-01-13T02:00:16.648Z,16.17
2019-01-13T02:02:45.621Z,25.90
2019-01-13T02:05:14.073Z,6.03
2019-01-13T02:07:42.477Z,9.37
2019-01-13T02:10:14.120Z,16.57
2019-01-13T02:12:42.533Z,16.87
2019-01-13T02:15:16.709Z,15.27
2019-01-13T02:17:45.492Z,16.60
2019-01-13T02:20:17.133Z,29.40
2019-01-13T02:22:45.917Z,21.73
2019-01-13T02:25:17.742Z,20.47
2019-01-13T02:27:46.159Z,16.13
2019-01-13T02:30:17.652Z,15.10
2019-01-13T02:32:46.521Z,22.07
2019-01-13T02:35:14.945Z,25.23
2019-01-13T02:37:43.426Z,32.20
2019-01-13T02:40:17.392Z,44.00
2019-01-13T02:42:46.049Z,27.47
2019-01-13T02:45:17.483Z,17.60
2019-01-13T02:47:47.334Z,27.33
2019-01-13T02:50:15.904Z,27.90
2019-01-13T02:52:44.313Z,18.60
2019-01-13T02:55:12.985Z,35.80
2019-01-13T02:57:41.585Z,28.37
2019-01-13T03:00:16.084Z,13.73
2019-01-13T03:02:44.808Z,20.53
2019-01-13T03:05:14.442Z,18.27
2019-01-13T03:07:42.863Z,18.73
2019-01-13T03:10:14.496Z,13.73
2019-01-13T03:12:42.996Z,23.50
2019-01-13T03:15:19.537Z,22.30
2019-01-13T03:17:44.574Z,23.40
2019-01-13T03:20:13.809Z,18.73
2019-01-13T03:22:42.229Z,19.10
2019-01-13T03:25:13.335Z,19.73
2019-01-13T03:27:41.833Z,21.50
2019-01-13T03:30:13.597Z,16.00
2019-01-13T03:32:42.011Z,18.00
2019-01-13T03:35:10.678Z,10.80
2019-01-13T03:37:39.096Z,22.03
2019-01-13T03:40:16.216Z,22.77
2019-01-13T03:42:44.896Z,25.40
2019-01-13T03:45:13.938Z,42.40
2019-01-13T03:47:42.511Z,19.57
2019-01-13T03:50:14.052Z,29.43
2019-01-13T03:52:42.461Z,33.63
2019-01-13T03:55:11.696Z,26.67
2019-01-13T03:57:40.112Z,27.20
2019-01-13T04:00:11.874Z,26.20
2019-01-13T04:02:40.288Z,38.67
2019-01-13T04:05:09.229Z,30.83
2019-01-13T04:07:37.645Z,29.90
2019-01-13T04:10:09.389Z,24.40
2019-01-13T04:12:37.882Z,14.20
2019-01-13T04:15:09.359Z,9.77
2019-01-13T04:17:38.232Z,30.80
2019-01-13T04:20:07.299Z,26.73
2019-01-13T04:22:35.700Z,24.80
2019-01-13T04:25:05.155Z,17.87
2019-01-13T04:27:33.598Z,19.67
2019-01-13T04:30:02.088Z,23.30
2019-01-13T04:32:30.484Z,24.50
2019-01-13T04:34:58.893Z,20.13
2019-01-13T04:37:27.300Z,24.50
2019-01-13T04:39:55.736Z,26.23
2019-01-13T04:42:24.136Z,29.87
2019-01-13T04:44:52.609Z,33.40
2019-01-13T04:47:21.024Z,32.43
2019-01-13T04:49:49.457Z,45.07
2019-01-13T04:52:17.846Z,34.23
2019-01-13T04:54:46.245Z,34.00
2019-01-13T04:57:14.792Z,23.73
2019-01-13T04:59:43.221Z,24.80
2019-01-13T05:02:11.620Z,17.60
2019-01-13T05:04:40.037Z,16.57
2019-01-13T05:07:08.434Z,24.17
2019-01-13T05:09:36.845Z,19.03
2019-01-13T05:12:05.248Z,23.30
2019-01-13T05:14:33.710Z,13.30
2019-01-13T05:17:02.105Z,15.83
2019-01-13T05:19:30.520Z,22.67
2019-01-13T05:21:58.928Z,13.70
2019-01-13T05:24:27.365Z,9.73
2019-01-13T05:26:55.765Z,11.67
2019-01-13T05:29:24.167Z,12.13
2019-01-13T05:31:52.568Z,8.13
2019-01-13T05:34:20.962Z,10.73
2019-01-13T05:36:49.537Z,6.33
2019-01-13T05:39:17.932Z,12.00
2019-01-13T05:41:46.346Z,7.47
2019-01-13T05:44:14.740Z,12.30
2019-01-13T05:46:43.148Z,24.87
2019-01-13T05:49:11.733Z,14.00
2019-01-13T05:51:40.145Z,32.43
2019-01-13T05:54:08.542Z,18.50
2019-01-13T05:56:36.949Z,25.93
2019-01-13T05:59:05.356Z,23.77
2019-01-13T06:01:34.107Z,23.93
2019-01-13T06:04:02.762Z,32.67
2019-01-13T06:06:31.176Z,32.30
2019-01-13T06:08:59.576Z,21.90
2019-01-13T06:11:28.052Z,25.70
2019-01-13T06:13:56.464Z,26.17
2019-01-13T06:16:24.877Z,32.80
2019-01-13T06:18:53.284Z,20.40
2019-01-13T06:21:21.682Z,29.37
2019-01-13T06:23:50.093Z,34.47
2019-01-13T06:26:18.491Z,14.50
2019-01-13T06:28:46.900Z,28.10
2019-01-13T06:31:15.364Z,15.80
2019-01-13T06:33:43.783Z,22.97
2019-01-13T06:36:12.185Z,17.53
2019-01-13T06:38:40.589Z,18.53
2019-01-13T06:41:08.996Z,10.83
2019-01-13T06:43:37.404Z,25.97
2019-01-13T06:46:05.952Z,15.37
2019-01-13T06:48:35.496Z,22.07
2019-01-13T06:51:04.180Z,16.73
2019-01-13T06:53:32.598Z,14.73
2019-01-13T06:56:00.999Z,15.53
2019-01-13T06:58:29.414Z,10.60
2019-01-13T07:00:57.812Z,20.63
2019-01-13T07:03:26.223Z,23.93
2019-01-13T07:05:54.752Z,19.17
2019-01-13T07:08:23.160Z,23.20
2019-01-13T07:10:51.573Z,23.93
2019-01-13T07:13:19.971Z,12.83
2019-01-13T07:15:48.368Z,19.57
2019-01-13T07:18:16.800Z,20.67
2019-01-13T07:20:45.208Z,11.73
2019-01-13T07:23:14.099Z,13.47
2019-01-13T07:25:42.492Z,5.77
2019-01-13T07:28:10.883Z,11.93
2019-01-13T07:30:42.344Z,13.83
2019-01-13T07:33:10.740Z,9.83
2019-01-13T07:35:39.143Z,6.30
2019-01-13T07:38:07.555Z,4.47
2019-01-13T07:40:35.957Z,7.40
2019-01-13T07:43:04.348Z,5.20
2019-01-13T07:45:32.752Z,18.07
2019-01-13T07:48:01.243Z,12.80
2019-01-13T07:50:29.646Z,11.70
2019-01-13T07:52:58.044Z,7.30
2019-01-13T07:55:26.451Z,8.07
2019-01-13T07:57:55.996Z,17.10
2019-01-13T08:00:27.257Z,11.23
2019-01-13T08:02:55.661Z,4.10
2019-01-13T08:05:24.067Z,8.07
2019-01-13T08:07:52.467Z,10.77
2019-01-13T08:10:20.884Z,7.03
2019-01-13T08:12:49.277Z,6.70
2019-01-13T08:15:20.023Z,11.63
2019-01-13T08:17:48.668Z,6.33
2019-01-13T08:20:25.668Z,8.17
2019-01-13T08:22:54.063Z,4.03
2019-01-13T08:25:23.108Z,3.77
2019-01-13T08:27:51.504Z,2.53
2019-01-13T08:30:21.031Z,4.00
2019-01-13T08:32:49.978Z,3.37
2019-01-13T08:35:18.388Z,3.53
2019-01-13T08:37:46.860Z,4.03
2019-01-13T08:40:17.693Z,3.40
2019-01-13T08:42:46.103Z,2.00
2019-01-13T08:45:14.849Z,2.80
2019-01-13T08:47:43.253Z,2.27
2019-01-13T08:50:14.816Z,1.97
2019-01-13T08:52:43.222Z,3.87
2019-01-13T08:55:11.884Z,1.10
2019-01-13T08:57:40.838Z,1.23
2019-01-13T09:00:26.946Z,2.53
2019-01-13T09:02:55.353Z,3.30
2019-01-13T09:05:24.687Z,1.50
2019-01-13T09:07:53.093Z,1.50
2019-01-13T09:10:23.507Z,1.80
2019-01-13T09:12:56.645Z,2.80
2019-01-13T09:15:26.082Z,1.80
2019-01-13T09:17:54.909Z,2.00
2019-01-13T09:20:26.963Z,4.27
2019-01-13T09:22:57.236Z,2.20
2019-01-13T09:25:26.207Z,2.10
2019-01-13T09:27:54.613Z,2.13
2019-01-13T09:30:27.900Z,1.83
2019-01-13T09:32:56.336Z,1.73
2019-01-13T09:35:25.574Z,3.70
2019-01-13T09:37:54.526Z,2.33
2019-01-13T09:40:25.360Z,2.07
2019-01-13T09:42:54.405Z,1.93
2019-01-13T09:45:23.442Z,1.40
2019-01-13T09:47:52.029Z,1.83
2019-01-13T09:50:23.957Z,1.20
2019-01-13T09:52:53.279Z,5.20
2019-01-13T09:55:24.536Z,1.03
2019-01-13T09:57:53.336Z,4.33
2019-01-13T10:00:27.670Z,1.30
2019-01-13T10:02:56.105Z,0.90
2019-01-13T10:05:24.535Z,1.00
2019-01-13T10:07:54.496Z,1.20
2019-01-13T10:10:22.898Z,2.60
2019-01-13T10:12:54.360Z,0.50
2019-01-13T10:15:25.105Z,0.73
2019-01-13T10:17:53.884Z,0.60
2019-01-13T10:20:22.280Z,0.80
2019-01-13T10:22:50.681Z,2.97
2019-01-13T10:25:19.249Z,0.60
2019-01-13T10:27:47.692Z,0.60
2019-01-13T10:30:27.356Z,4.60
2019-01-13T10:32:55.833Z,1.70
2019-01-13T10:35:24.396Z,1.43
2019-01-13T10:37:53.261Z,1.73
2019-01-13T10:40:24.210Z,2.00
2019-01-13T10:42:53.516Z,5.10
2019-01-13T10:45:21.931Z,0.60
2019-01-13T10:47:50.601Z,1.13
2019-01-13T10:50:22.348Z,0.60
2019-01-13T10:52:51.025Z,1.00
2019-01-13T10:55:19.559Z,2.00
2019-01-13T10:57:47.945Z,0.77
2019-01-13T11:00:22.036Z,0.50
2019-01-13T11:02:50.427Z,5.07
2019-01-13T11:05:18.833Z,0.87
2019-01-13T11:07:47.771Z,1.40
2019-01-13T11:10:18.884Z,3.97
2019-01-13T11:12:47.276Z,1.80
2019-01-13T11:15:21.768Z,2.70
2019-01-13T11:17:49.263Z,5.60
2019-01-13T11:20:26.068Z,2.67
2019-01-13T11:22:54.720Z,0.73
2019-01-13T11:25:23.224Z,2.87
2019-01-13T11:27:51.620Z,2.20
2019-01-13T11:30:23.452Z,4.10
2019-01-13T11:32:51.844Z,0.80
2019-01-13T11:35:20.258Z,2.10
2019-01-13T11:37:49.193Z,8.87
2019-01-13T11:40:23.504Z,2.20
2019-01-13T11:42:51.902Z,0.70
2019-01-13T11:45:20.471Z,1.37
2019-01-13T11:47:49.241Z,5.27
2019-01-13T11:50:25.528Z,1.20
2019-01-13T11:52:53.936Z,0.67
2019-01-13T11:55:22.340Z,1.50
2019-01-13T11:57:50.741Z,0.53
2019-01-13T12:00:25.180Z,3.20
2019-01-13T12:02:53.580Z,3.50
2019-01-13T12:05:21.988Z,2.10
2019-01-13T12:07:50.384Z,5.53
2019-01-13T12:10:20.851Z,4.50
2019-01-13T12:12:49.787Z,8.53
2019-01-13T12:15:20.698Z,8.27
2019-01-13T12:17:49.105Z,5.40
2019-01-13T12:20:19.867Z,4.80
2019-01-13T12:22:48.904Z,6.70
2019-01-13T12:25:19.395Z,14.53
2019-01-13T12:27:47.805Z,14.20
2019-01-13T12:30:22.359Z,11.83
2019-01-13T12:32:50.766Z,17.33
2019-01-13T12:35:19.182Z,14.20
2019-01-13T12:37:47.588Z,9.73
2019-01-13T12:40:18.252Z,19.23
2019-01-13T12:42:47.581Z,11.93
2019-01-13T12:45:18.830Z,20.23
2019-01-13T12:47:47.396Z,9.07
2019-01-13T12:50:35.144Z,11.57
2019-01-13T12:53:04.089Z,14.87
2019-01-13T12:55:32.590Z,17.23
2019-01-13T12:58:00.992Z,11.70
2019-01-13T13:00:29.404Z,24.50
2019-01-13T13:02:57.817Z,25.43
2019-01-13T13:05:26.204Z,22.73
2019-01-13T13:07:54.632Z,20.50
2019-01-13T13:10:32.339Z,19.80
2019-01-13T13:13:00.753Z,20.63
2019-01-13T13:15:29.153Z,32.73
2019-01-13T13:17:57.575Z,34.53
2019-01-13T13:20:25.978Z,25.77
2019-01-13T13:22:55.127Z,47.23
2019-01-13T13:25:23.520Z,27.07
2019-01-13T13:27:52.196Z,31.87
2019-01-13T13:30:28.359Z,26.10
2019-01-13T13:32:57.406Z,40.30
2019-01-13T13:35:25.902Z,29.50
2019-01-13T13:37:54.381Z,41.90
2019-01-13T13:40:42.124Z,35.33
2019-01-13T13:43:10.549Z,37.53
2019-01-13T13:45:38.946Z,23.87
2019-01-13T13:48:07.449Z,51.83
2019-01-13T13:50:35.845Z,33.83
2019-01-13T13:53:05.105Z,42.10
2019-01-13T13:55:33.487Z,40.67
2019-01-13T13:58:01.909Z,43.13
2019-01-13T14:00:32.824Z,34.10
2019-01-13T14:03:01.260Z,43.07
2019-01-13T14:05:29.675Z,51.87
2019-01-13T14:07:58.085Z,34.87
2019-01-13T14:10:37.653Z,35.93
2019-01-13T14:13:06.139Z,35.20
2019-01-13T14:15:34.720Z,28.97
2019-01-13T14:18:03.253Z,29.47
2019-01-13T14:20:31.650Z,25.90
2019-01-13T14:23:00.099Z,19.83
2019-01-13T14:25:28.505Z,45.67
2019-01-13T14:27:56.908Z,20.33
2019-01-13T14:30:27.659Z,23.17
2019-01-13T14:32:56.997Z,23.60
2019-01-13T14:35:25.419Z,22.73
2019-01-13T14:37:54.102Z,26.57
2019-01-13T14:40:24.263Z,23.03
2019-01-13T14:42:52.713Z,26.23
2019-01-13T14:45:25.348Z,21.23
2019-01-13T14:47:54.122Z,28.13
2019-01-13T14:50:25.832Z,21.17
2019-01-13T14:52:54.773Z,5.20
2019-01-13T14:55:23.200Z,20.90
2019-01-13T14:57:51.614Z,11.30
2019-01-13T15:00:29.590Z,16.73
2019-01-13T15:02:58.158Z,19.53
2019-01-13T15:05:26.720Z,7.33
2019-01-13T15:07:55.139Z,13.13
2019-01-13T15:10:25.104Z,11.30
2019-01-13T15:12:54.340Z,14.13
2019-01-13T15:15:23.385Z,17.53
2019-01-13T15:17:51.790Z,17.53
2019-01-13T15:20:25.062Z,15.43
2019-01-13T15:22:53.469Z,16.20
2019-01-13T15:25:27.375Z,9.50
2019-01-13T15:27:56.994Z,17.37
2019-01-13T15:30:33.609Z,11.83
2019-01-13T15:33:02.000Z,17.33
2019-01-13T15:35:30.408Z,21.83
2019-01-13T15:37:58.825Z,18.83
2019-01-13T15:40:27.219Z,23.87
2019-01-13T15:42:55.627Z,25.20
2019-01-13T15:45:24.028Z,19.83
2019-01-13T15:47:52.436Z,16.97
2019-01-13T15:50:23.376Z,26.93
2019-01-13T15:52:51.795Z,23.27
2019-01-13T15:55:20.990Z,18.00
2019-01-13T15:57:49.815Z,18.80
2019-01-13T16:00:26.748Z,12.80
2019-01-13T16:02:55.161Z,18.70
2019-01-13T16:05:24.115Z,12.53
2019-01-13T16:07:52.520Z,15.93
2019-01-13T16:10:23.363Z,26.37
2019-01-13T16:12:51.871Z,25.03
2019-01-13T16:15:20.354Z,12.87
2019-01-13T16:17:48.761Z,19.43
2019-01-13T16:20:31.873Z,29.57
2019-01-13T16:23:00.277Z,25.30
2019-01-13T16:25:28.672Z,38.33
2019-01-13T16:27:57.095Z,15.77
2019-01-13T16:30:28.201Z,18.77
2019-01-13T16:32:56.620Z,25.50
2019-01-13T16:35:25.048Z,20.97
2019-01-13T16:37:53.617Z,30.17
2019-01-13T16:40:23.574Z,38.30
2019-01-13T16:42:51.976Z,35.83
2019-01-13T16:45:20.393Z,25.63
2019-01-13T16:47:49.430Z,29.53
2019-01-13T16:50:23.112Z,35.73
2019-01-13T16:52:53.444Z,30.80
2019-01-13T16:55:23.020Z,15.53
2019-01-13T16:57:51.803Z,19.90
2019-01-13T17:00:22.545Z,32.80
2019-01-13T17:02:51.008Z,31.30
2019-01-13T17:05:20.857Z,26.50
2019-01-13T17:07:50.761Z,28.83
2019-01-13T17:10:23.723Z,21.50
2019-01-13T17:12:52.203Z,43.33
2019-01-13T17:15:23.593Z,24.27
2019-01-13T17:17:52.000Z,28.67
2019-01-13T17:20:22.522Z,43.70
2019-01-13T17:22:50.940Z,29.03
2019-01-13T17:25:21.774Z,42.67
2019-01-13T17:27:50.712Z,39.30
2019-01-13T17:30:32.558Z,31.93
2019-01-13T17:33:01.196Z,26.20
2019-01-13T17:35:29.604Z,23.40
2019-01-13T17:37:58.016Z,27.23
2019-01-13T17:40:26.684Z,32.17
2019-01-13T17:42:56.052Z,35.80
2019-01-13T17:45:27.164Z,23.10
2019-01-13T17:47:55.560Z,30.77
2019-01-13T17:50:25.412Z,45.47
2019-01-13T17:52:53.816Z,42.53
2019-01-13T17:55:24.357Z,43.23
2019-01-13T17:57:53.307Z,15.57
2019-01-13T18:00:24.772Z,40.40
2019-01-13T18:02:53.191Z,27.40
2019-01-13T18:05:21.589Z,48.30
2019-01-13T18:07:50.005Z,15.87
2019-01-13T18:10:18.402Z,32.97
2019-01-13T18:12:46.816Z,33.77
2019-01-13T18:15:15.388Z,51.67
2019-01-13T18:17:43.798Z,47.60
2019-01-13T18:20:15.210Z,55.13
2019-01-13T18:22:43.627Z,22.03
2019-01-13T18:25:14.460Z,30.40
2019-01-13T18:27:42.882Z,33.50
2019-01-13T18:30:23.203Z,39.07
2019-01-13T18:32:52.045Z,50.03
2019-01-13T18:35:22.328Z,28.87
2019-01-13T18:37:50.746Z,31.40
2019-01-13T18:40:21.280Z,25.93
2019-01-13T18:42:50.062Z,38.23
2019-01-13T18:45:19.992Z,46.10
2019-01-13T18:47:48.404Z,29.10
2019-01-13T18:50:21.534Z,50.07
2019-01-13T18:52:53.285Z,21.97
2019-01-13T18:55:21.972Z,28.60
2019-01-13T18:57:52.123Z,36.07
2019-01-13T19:00:25.437Z,23.57
2019-01-13T19:02:54.364Z,11.40
2019-01-13T19:05:25.312Z,31.03
2019-01-13T19:07:53.724Z,40.40
2019-01-13T19:10:50.873Z,37.37
2019-01-13T19:13:25.113Z,33.73
2019-01-13T19:15:56.626Z,26.00
2019-01-13T19:18:25.041Z,37.50
2019-01-13T19:20:53.437Z,19.03
2019-01-13T19:23:23.279Z,45.77
2019-01-13T19:25:51.680Z,30.70
2019-01-13T19:28:20.091Z,28.93
2019-01-13T19:30:48.511Z,34.60
2019-01-13T19:33:16.920Z,31.57
2019-01-13T19:35:45.325Z,31.30
2019-01-13T19:38:13.732Z,33.23
2019-01-13T19:40:42.131Z,23.60
2019-01-13T19:43:10.543Z,51.47
2019-01-13T19:45:38.944Z,39.60
2019-01-13T19:48:07.388Z,38.83
2019-01-13T19:50:35.798Z,26.97
2019-01-13T19:53:04.464Z,25.63
2019-01-13T19:55:32.885Z,37.13
2019-01-13T19:58:01.271Z,40.27
2019-01-13T20:00:34.525Z,35.10
2019-01-13T20:03:03.157Z,40.27
2019-01-13T20:05:31.564Z,30.13
2019-01-13T20:07:59.973Z,35.27
2019-01-13T20:10:28.384Z,28.63
2019-01-13T20:12:56.788Z,33.87
2019-01-13T20:15:25.209Z,28.83
2019-01-13T20:17:53.611Z,36.40
2019-01-13T20:20:22.186Z,29.97
2019-01-13T20:22:50.585Z,24.30
2019-01-13T20:25:19.575Z,12.60
2019-01-13T20:27:47.968Z,22.43
2019-01-13T20:30:23.132Z,19.90
2019-01-13T20:32:51.546Z,31.80
2019-01-13T20:35:20.074Z,16.93
2019-01-13T20:37:48.479Z,26.03
2019-01-13T20:40:20.207Z,23.93
2019-01-13T20:42:48.973Z,20.43
2019-01-13T20:45:26.112Z,29.13
2019-01-13T20:47:54.528Z,34.53
2019-01-13T20:50:22.939Z,36.77
2019-01-13T20:52:51.338Z,37.93
2019-01-13T20:55:19.749Z,30.53
2019-01-13T20:57:48.149Z,24.83
2019-01-13T21:00:24.727Z,14.30
2019-01-13T21:02:53.500Z,21.73
2019-01-13T21:05:26.524Z,18.57
2019-01-13T21:07:52.980Z,31.13
2019-01-13T21:10:22.240Z,33.00
2019-01-13T21:12:51.913Z,22.57
2019-01-13T21:15:23.397Z,21.70
2019-01-13T21:17:57.428Z,35.30
2019-01-13T21:20:22.012Z,34.10
2019-01-13T21:22:50.778Z,35.43
2019-01-13T21:25:19.175Z,33.40
2019-01-13T21:27:47.724Z,15.80
2019-01-13T21:30:19.128Z,45.20
2019-01-13T21:32:47.535Z,35.57
2019-01-13T21:35:16.008Z,23.37
2019-01-13T21:37:44.417Z,32.23
2019-01-13T21:40:15.363Z,27.20
2019-01-13T21:42:43.838Z,39.37
2019-01-13T21:45:18.213Z,39.67
2019-01-13T21:47:47.700Z,35.87
2019-01-13T21:50:18.664Z,31.00
2019-01-13T21:52:47.507Z,42.03
2019-01-13T21:55:17.941Z,31.83
2019-01-13T21:57:46.887Z,42.97
2019-01-13T22:00:18.669Z,45.93
2019-01-13T22:02:47.125Z,32.43
2019-01-13T22:05:15.736Z,29.07
2019-01-13T22:07:44.160Z,30.80
2019-01-13T22:10:15.284Z,43.67
2019-01-13T22:12:43.699Z,37.03
2019-01-13T22:15:15.389Z,38.37
2019-01-13T22:17:44.069Z,42.50
2019-01-13T22:20:15.220Z,27.43
2019-01-13T22:22:45.489Z,29.73
2019-01-13T22:25:14.720Z,33.83
2019-01-13T22:27:43.435Z,41.20
2019-01-13T22:30:17.350Z,28.97
2019-01-13T22:32:45.759Z,54.47
2019-01-13T22:35:14.426Z,38.30
2019-01-13T22:37:43.216Z,27.90
2019-01-13T22:40:14.297Z,27.90
2019-01-13T22:42:42.697Z,30.60
2019-01-13T22:45:16.495Z,52.33
2019-01-13T22:47:44.893Z,64.90
2019-01-13T22:50:14.924Z,28.40
2019-01-13T22:52:43.390Z,37.97
2019-01-13T22:55:12.141Z,37.77
2019-01-13T22:57:40.541Z,33.13
2019-01-13T23:00:44.844Z,42.77
2019-01-13T23:03:13.240Z,37.90
2019-01-13T23:05:46.085Z,32.17
2019-01-13T23:08:14.480Z,48.33
2019-01-13T23:10:43.016Z,37.40
2019-01-13T23:13:11.408Z,30.33
2019-01-13T23:15:39.854Z,36.00
2019-01-13T23:18:08.252Z,39.43
2019-01-13T23:20:36.734Z,39.97
2019-01-13T23:23:05.509Z,24.77
2019-01-13T23:25:33.938Z,31.37
2019-01-13T23:28:02.341Z,62.77
2019-01-13T23:30:30.749Z,27.53
2019-01-13T23:32:59.148Z,45.23
2019-01-13T23:35:27.562Z,41.83
2019-01-13T23:37:55.976Z,33.20
2019-01-13T23:40:24.376Z,41.80
2019-01-13T23:42:52.850Z,48.00
2019-01-13T23:45:21.256Z,46.23
2019-01-13T23:47:49.661Z,62.37
2019-01-13T23:50:18.065Z,43.87
2019-01-13T23:52:46.732Z,38.67
2019-01-13T23:55:15.492Z,59.60
2019-01-13T23:57:43.887Z,34.07
